Time;durP1;ratioP1;P1;durP2;ratioP2;P2;SDS_P1;SDS_P2;PMS_P1;PMS_P2;Temp;Humidity;BMP_temperature;BMP_pressure;BME280_temperature;BME280_humidity;BME280_pressure;Samples;Min_cycle;Max_cycle;Signal;HPM_P1;HPM_P2
2022/12/26 00:02:29;;;;;;;;;;;;;;;11.44;81.53;99150.72;8380437;28;20480;-79
2022/12/26 00:06:32;;;;;;;1999.90;999.90;;;;;;;11.46;81.46;99135.94;8366846;28;19964;-81
2022/12/26 00:10:33;;;;;;;;;;;;;;;11.48;81.22;99131.59;8386638;28;20407;-82
2022/12/26 00:14:35;;;;;;;1999.90;999.90;;;;;;;11.52;80.72;99139.38;8374986;28;19924;-78
2022/12/26 00:18:38;;;;;;;1999.90;999.90;;;;;;;11.58;80.21;99137.56;8380141;28;20544;-79
2022/12/26 00:22:39;;;;;;;;;;;;;;;11.55;80.53;99141.94;8385381;28;20070;-78
2022/12/26 00:26:42;;;;;;;1999.90;999.90;;;;;;;11.56;80.49;99134.13;8382650;28;20428;-79
2022/12/26 00:30:44;;;;;;;1999.90;999.90;;;;;;;11.60;79.76;99137.53;8390303;28;20056;-79
2022/12/26 00:34:45;;;;;;;1999.90;999.90;;;;;;;11.58;80.07;99128.88;8804113;22;20060;-79
2022/12/26 00:38:47;;;;;;;1999.90;999.90;;;;;;;11.56;79.98;99128.91;8336341;28;20190;-79
2022/12/26 00:42:49;;;;;;;1999.90;999.90;;;;;;;11.54;79.48;99146.28;8322640;28;20139;-78
2022/12/26 00:46:50;;;;;;;1999.90;999.90;;;;;;;11.56;79.61;99148.84;8360154;28;20541;-79
2022/12/26 00:50:52;;;;;;;1999.90;999.90;;;;;;;11.50;80.25;99145.47;8335314;28;20444;-82
2022/12/26 00:54:53;;;;;;;1999.90;999.90;;;;;;;11.52;79.75;99139.38;8324725;28;20098;-81
2022/12/26 00:58:55;;;;;;;1999.90;999.90;;;;;;;11.52;80.12;99149.78;8355716;28;20136;-79
2022/12/26 01:02:56;;;;;;;1999.90;999.90;;;;;;;11.49;79.44;99169.75;8324152;28;20041;-78
2022/12/26 01:06:58;;;;;;;1999.90;999.90;;;;;;;11.49;80.11;99169.75;8342540;28;20048;-79
2022/12/26 01:11:05;;;;;;;1999.90;999.90;;;;;;;11.44;80.66;99147.25;8314987;28;20156;-79
2022/12/26 01:15:08;;;;;;;1999.90;999.90;;;;;;;11.41;81.12;99157.69;8327342;28;20033;-79
2022/12/26 01:19:10;;;;;;;1999.90;999.90;;;;;;;11.41;79.91;99157.69;8315858;28;20437;-79
2022/12/26 01:23:13;;;;;;;1999.90;999.90;;;;;;;11.42;80.26;99208.81;8332925;28;20068;-79
2022/12/26 01:27:15;;;;;;;1999.90;999.90;;;;;;;11.45;80.50;99208.78;8340592;28;20052;-79
2022/12/26 01:31:18;;;;;;;1999.90;999.90;;;;;;;11.44;80.59;99204.44;8325483;28;20148;-79
2022/12/26 01:35:19;;;;;;;1999.90;999.90;;;;;;;11.41;80.65;99217.47;8338518;28;20158;-79
2022/12/26 01:39:21;;;;;;;1999.90;999.90;;;;;;;11.41;80.56;99209.69;8371946;28;20071;-79
2022/12/26 01:43:23;;;;;;;1999.90;999.90;;;;;;;11.36;81.18;99209.75;8374979;28;20050;-79
2022/12/26 01:47:38;;;;;;;1999.90;999.90;;;;;;;11.34;81.68;99208.03;8392392;28;20044;-79
2022/12/26 01:51:44;;;;;;;1999.90;999.90;;;;;;;11.31;81.64;99214.13;8369398;28;20309;-80
2022/12/26 01:55:51;;;;;;;1999.90;999.90;;;;;;;11.32;81.87;99202.00;8357589;28;20134;-78
2022/12/26 01:59:55;;;;;;;1999.90;999.90;;;;;;;11.28;82.38;99197.69;8375267;28;20139;-79
2022/12/26 02:08:27;;;;;;;1999.90;999.90;;;;;;;11.21;82.73;99189.09;8396525;28;20044;-79
2022/12/26 02:12:33;;;;;;;1999.90;999.90;;;;;;;11.20;82.73;99182.19;8387897;28;20037;-78
2022/12/26 02:16:39;;;;;;;1999.90;999.90;;;;;;;11.21;82.87;99173.50;8373756;28;20044;-79
2022/12/26 02:21:03;;;;;;;1999.90;999.90;;;;;;;11.22;82.70;99164.84;8406607;28;20048;-79
2022/12/26 02:25:23;;;;;;;1999.90;999.90;;;;;;;11.19;82.48;99155.34;8392825;28;20609;-79
2022/12/26 02:29:53;;;;;;;1999.90;999.90;;;;;;;11.22;82.50;99182.16;8390094;28;20123;-79
2022/12/26 02:34:11;;;;;;;1999.90;999.90;;;;;;;11.25;82.59;99177.78;8381195;28;20075;-78
2022/12/26 02:38:55;;;;;;;1999.90;999.90;;;;;;;11.26;82.03;99192.50;8384954;28;20492;-79
2022/12/26 02:43:10;;;;;;;1999.90;999.90;;;;;;;11.26;82.04;99195.09;8384713;28;20139;-79
2022/12/26 02:47:15;;;;;;;1999.90;999.90;;;;;;;11.22;82.33;99192.56;8380594;28;20048;-78
2022/12/26 03:13:32;;;;;;;1999.90;999.90;;;;;;;10.92;84.47;99204.97;8399015;28;19935;-79
2022/12/26 03:17:41;;;;;;;1999.90;999.90;;;;;;;10.95;84.53;99206.66;8367401;28;20479;-80
2022/12/26 03:21:45;;;;;;;1999.90;999.90;;;;;;;10.89;85.01;99203.25;8385948;28;20465;-78
2022/12/26 03:34:36;;;;;;;1999.90;999.90;;;;;;;10.95;85.27;99209.25;8375089;28;20048;-78
2022/12/26 03:38:54;;;;;;;1999.90;999.90;;;;;;;10.98;84.73;99212.72;8377723;28;20068;-81
2022/12/26 04:19:47;;;;;;;1999.90;999.90;;;;;;;11.26;83.26;99209.84;8375317;28;20044;-79
2022/12/26 04:45:46;;;;;;;1999.90;999.90;;;;;;;11.30;83.95;99209.78;8386895;28;20079;-79
2022/12/26 04:54:09;;;;;;;1999.90;999.90;;;;;;;11.31;84.02;99208.94;8395235;28;19927;-79
2022/12/26 04:58:11;;;;;;;1999.90;999.90;;;;;;;11.33;83.84;99211.53;8362217;28;20044;-79
2022/12/26 05:11:00;;;;;;;1999.90;999.90;;;;;;;11.22;85.88;99224.63;8375230;28;20052;-77
2022/12/26 05:15:03;;;;;;;1999.90;999.90;;;;;;;11.17;87.00;99232.47;8394632;28;20040;-77
2022/12/26 05:32:08;;;;;;;1999.90;999.90;;;;;;;10.60;94.79;99251.97;8394183;28;20119;-76
2022/12/26 05:36:09;;;;;;;1999.90;999.90;;;;;;;10.50;96.12;99251.16;8392239;28;20395;-76
2022/12/26 05:40:11;;;;;;;1999.90;999.90;;;;;;;10.41;97.31;99246.03;8373264;28;20067;-77
2022/12/26 05:44:12;;;;;;;1999.90;999.90;;;;;;;10.38;98.30;99233.06;8395923;28;20685;-78
2022/12/26 05:48:13;;;;;;;1999.90;999.90;;;;;;;10.30;98.84;99234.84;8392791;28;20068;-76
2022/12/26 05:52:15;;;;;;;1999.90;999.90;;;;;;;10.23;99.93;99227.97;8401694;28;20052;-75
2022/12/26 05:56:18;;;;;;;1999.90;999.90;;;;;;;10.17;100.00;99233.16;8393917;28;20123;-75
2022/12/26 06:00:19;;;;;;;1999.90;999.90;;;;;;;10.13;100.00;99237.50;8383105;28;20958;-77
2022/12/26 06:04:21;;;;;;;1999.90;999.90;;;;;;;10.08;100.00;99238.41;8398667;28;20047;-76
2022/12/26 06:08:22;;;;;;;1999.90;999.90;;;;;;;10.06;100.00;99219.41;8360422;28;20525;-76
2022/12/26 06:12:24;;;;;;;1999.90;999.90;;;;;;;10.00;100.00;99215.94;8366433;28;20453;-76
2022/12/26 06:16:25;;;;;;;1999.90;999.90;;;;;;;10.04;100.00;99229.75;8376510;28;20032;-76
2022/12/26 06:20:26;;;;;;;1999.90;999.90;;;;;;;10.03;100.00;99246.19;8361796;28;20217;-75
2022/12/26 06:24:28;;;;;;;1999.90;999.90;;;;;;;10.05;100.00;99262.59;8378652;28;20147;-76
2022/12/26 06:28:29;;;;;;;1999.90;999.90;;;;;;;10.06;100.00;99268.69;8394554;28;20044;-75
2022/12/26 06:32:32;;;;;;;1999.90;999.90;;;;;;;10.08;100.00;99274.72;8367521;28;20041;-78
2022/12/26 06:36:34;;;;;;;1999.90;999.90;;;;;;;10.11;100.00;99285.94;8358554;28;20055;-75
2022/12/26 06:40:40;;;;;;;1999.90;999.90;;;;;;;10.10;100.00;99273.00;8380456;28;20171;-76
2022/12/26 06:44:41;;;;;;;1999.90;999.90;;;;;;;10.15;100.00;99274.69;8362809;28;20135;-75
2022/12/26 06:48:43;;;;;;;1999.90;999.90;;;;;;;10.15;100.00;99276.41;8379588;28;20138;-76
2022/12/26 06:52:44;;;;;;;1999.90;999.90;;;;;;;10.16;100.00;99288.50;8358600;28;20445;-76
2022/12/26 06:56:45;;;;;;;1999.90;999.90;;;;;;;10.12;100.00;99295.47;8371060;28;20041;-75
2022/12/26 07:00:47;;;;;;;1999.90;999.90;;;;;;;10.14;100.00;99301.50;8374701;28;20045;-76
2022/12/26 07:04:48;;;;;;;1999.90;999.90;;;;;;;10.16;100.00;99289.38;8378070;28;20089;-76
2022/12/26 07:08:51;;;;;;;1999.90;999.90;;;;;;;10.15;100.00;99284.19;8344864;28;20733;-77
2022/12/26 07:12:53;;;;;;;1999.90;999.90;;;;;;;10.14;100.00;99279.88;8364150;28;20396;-75
2022/12/26 07:16:54;;;;;;;1999.90;999.90;;;;;;;10.12;100.00;99282.47;8368421;28;20033;-79
2022/12/26 07:20:56;;;;;;;1999.90;999.90;;;;;;;10.10;100.00;99283.38;8371006;28;20140;-78
2022/12/26 07:24:57;;;;;;;1999.90;999.90;;;;;;;10.11;100.00;99308.44;8377486;28;20044;-78
2022/12/26 07:28:59;;;;;;;1999.90;999.90;;;;;;;10.09;100.00;99328.34;8379549;28;20047;-81
2022/12/26 07:33:00;;;;;;;1999.90;999.90;;;;;;;10.09;100.00;99338.72;8368782;28;20123;-77
2022/12/26 07:37:02;;;;;;;1999.90;999.90;;;;;;;10.07;100.00;99338.72;8357273;28;20048;-77
2022/12/26 07:41:56;;;;;;;1999.90;999.90;;;;;;;10.09;100.00;99343.91;8373262;28;20536;-77
2022/12/26 07:45:25;;;;;;;1999.90;999.90;;;;;;;10.07;100.00;99336.13;8392282;28;20076;-76
2022/12/26 07:49:28;;;;;;;1999.90;999.90;;;;;;;10.06;100.00;99325.75;8373338;28;20048;-77
2022/12/26 07:53:30;;;;;;;1999.90;999.90;;;;;;;10.04;100.00;99317.09;8372266;28;20495;-77
2022/12/26 07:57:31;;;;;;;1999.90;999.90;;;;;;;10.03;100.00;99315.38;8392641;28;20044;-76
2022/12/26 08:01:50;;;;;;;1999.90;999.90;;;;;;;9.98;100.00;99311.06;8391447;28;20155;-77
2022/12/26 08:05:51;;;;;;;1999.90;999.90;;;;;;;9.97;100.00;99314.53;8375272;28;20064;-78
2022/12/26 08:09:53;;;;;;;1999.90;999.90;;;;;;;9.97;100.00;99303.28;8361908;28;20063;-77
2022/12/26 08:13:54;;;;;;;1999.90;999.90;;;;;;;9.95;100.00;99318.00;8375069;28;20033;-76
2022/12/26 08:17:55;;;;;;;1999.90;999.90;;;;;;;9.94;100.00;99313.69;8355523;28;20725;-76
2022/12/26 08:21:57;;;;;;;1999.90;999.90;;;;;;;9.92;100.00;99336.16;8387048;28;20123;-77
2022/12/26 08:26:03;;;;;;;1999.90;999.90;;;;;;;9.91;100.00;99348.28;8389832;28;20114;-77
2022/12/26 08:30:05;;;;;;;1999.90;999.90;;;;;;;9.91;100.00;99352.59;8386375;28;20120;-76
2022/12/26 08:34:07;;;;;;;1999.90;999.90;;;;;;;9.93;100.00;99353.44;8366489;28;20060;-77
2022/12/26 08:38:08;;;;;;;1999.90;999.90;;;;;;;9.92;100.00;99346.53;8342314;28;20051;-77
2022/12/26 08:42:10;;;;;;;1999.90;999.90;;;;;;;9.96;100.00;99349.13;8340896;28;20139;-77
2022/12/26 08:46:12;;;;;;;1999.90;999.90;;;;;;;10.01;100.00;99351.69;8354133;28;20779;-79
2022/12/26 08:50:13;;;;;;;1999.90;999.90;;;;;;;10.03;100.00;99362.06;8313659;28;20041;-78
2022/12/26 08:54:14;;;;;;;1999.90;999.90;;;;;;;10.06;100.00;99381.09;8339385;28;20410;-79
2022/12/26 08:58:16;;;;;;;1999.90;999.90;;;;;;;10.09;100.00;99396.66;8344619;28;20170;-76
2022/12/26 09:02:18;;;;;;;1999.90;999.90;;;;;;;10.14;100.00;99417.38;8339401;28;20122;-79
2022/12/26 09:06:20;;;;;;;1999.90;999.90;;;;;;;10.16;100.00;99410.47;8335032;28;20306;-78
2022/12/26 09:10:21;;;;;;;1999.90;999.90;;;;;;;10.16;100.00;99408.72;8363594;28;20278;-77
2022/12/26 09:14:23;;;;;;;1999.90;999.90;;;;;;;10.16;100.00;99407.88;8353683;28;20472;-81
2022/12/26 09:18:25;;;;;;;1999.90;999.90;;;;;;;10.18;100.00;99400.94;8341727;28;20049;-77
2022/12/26 09:26:46;;;;;;;1999.90;999.90;;;;;;;10.24;100.00;99401.84;8325015;28;20041;-77
2022/12/26 09:30:48;;;;;;;1999.90;999.90;;;;;;;10.27;100.00;99414.78;8350174;28;20079;-77
2022/12/26 09:34:49;;;;;;;1999.90;999.90;;;;;;;10.29;100.00;99415.66;8350939;28;20079;-77
2022/12/26 09:38:53;;;;;;;1999.90;999.90;;;;;;;10.32;100.00;99429.47;8384839;28;20041;-77
2022/12/26 09:43:27;;;;;;;1999.90;999.90;;;;;;;10.35;100.00;99427.72;8386784;28;20458;-77
2022/12/26 09:47:33;;;;;;;1999.90;999.90;;;;;;;10.37;100.00;99443.31;8354142;28;20441;-78
2022/12/26 09:51:37;;;;;;;1999.90;999.90;;;;;;;10.36;100.00;99449.38;8381568;28;20462;-77
2022/12/26 09:55:41;;;;;;;1999.90;999.90;;;;;;;10.34;100.00;99461.47;8364667;28;20040;-77
2022/12/26 09:59:57;;;;;;;1999.90;999.90;;;;;;;10.37;100.00;99454.53;8381629;28;20048;-78
2022/12/26 10:04:01;;;;;;;1999.90;999.90;;;;;;;10.39;100.00;99457.13;8370533;28;20083;-78
2022/12/26 10:08:23;;;;;;;1999.90;999.90;;;;;;;10.44;100.00;99440.69;8375180;28;20052;-76
2022/12/26 10:12:34;;;;;;;1999.90;999.90;;;;;;;10.47;100.00;99450.22;8389698;28;20751;-78
2022/12/26 10:16:43;;;;;;;1999.90;999.90;;;;;;;10.48;100.00;99439.81;8390215;28;20979;-77
2022/12/26 10:21:25;;;;;;;1999.90;999.90;;;;;;;10.57;100.00;99436.31;8366663;28;20135;-77
2022/12/26 10:25:42;;;;;;;1999.90;999.90;;;;;;;10.65;100.00;99444.09;8354745;28;20547;-78
2022/12/26 10:30:02;;;;;;;1999.90;999.90;;;;;;;10.73;100.00;99453.56;8352850;28;20524;-77
2022/12/26 10:34:07;;;;;;;1999.90;999.90;;;;;;;10.80;100.00;99457.88;8364471;28;20052;-77
2022/12/26 10:38:33;;;;;;;1999.90;999.90;;;;;;;10.87;100.00;99464.75;8366827;28;20401;-77
2022/12/26 10:42:40;;;;;;;1999.90;999.90;;;;;;;10.95;100.00;99464.75;8382979;28;20127;-77
2022/12/26 10:47:36;;;;;;;1999.90;999.90;;;;;;;11.00;100.00;99469.91;8381696;28;20155;-77
2022/12/26 10:51:38;;;;;;;1999.90;999.90;;;;;;;11.02;100.00;99475.97;8363867;28;20630;-77
2022/12/26 10:55:39;;;;;;;1999.90;999.90;;;;;;;11.06;99.62;99482.84;8374288;28;20513;-78
2022/12/26 10:59:50;;;;;;;1999.90;999.90;;;;;;;11.07;99.72;99487.19;8374268;28;20048;-76
2022/12/26 11:03:57;;;;;;;1999.90;999.90;;;;;;;11.12;99.54;99490.63;8387167;28;20037;-77
2022/12/26 11:08:08;;;;;;;1999.90;999.90;;;;;;;11.13;98.74;99477.66;8375567;28;20127;-77
2022/12/26 11:12:23;;;;;;;1999.90;999.90;;;;;;;11.20;98.32;99479.31;8390980;28;20074;-78
2022/12/26 11:16:32;;;;;;;1999.90;999.90;;;;;;;11.30;98.41;99474.91;8378584;28;20068;-77
2022/12/26 11:20:34;;;;;;;1999.90;999.90;;;;;;;11.33;98.14;99477.53;8363268;28;20090;-78
2022/12/26 11:24:35;;;;;;;1999.90;999.90;;;;;;;11.33;97.11;99476.66;8378886;28;20616;-79
2022/12/26 11:28:37;;;;;;;1999.90;999.90;;;;;;;11.34;97.21;99468.00;8367269;28;20652;-80
2022/12/26 11:32:40;;;;;;;1999.90;999.90;;;;;;;11.32;96.71;99468.00;8369156;28;20396;-78
2022/12/26 11:36:48;;;;;;;1999.90;999.90;;;;;;;11.28;96.88;99457.59;8336017;28;20057;-79
2022/12/26 11:41:30;;;;;;;1999.90;999.90;;;;;;;11.33;96.58;99453.25;8355575;28;20490;-78
2022/12/26 11:45:12;;;;;;;1999.90;999.90;;;;;;;11.35;96.54;99464.50;8340918;28;20127;-79
2022/12/26 11:49:21;;;;;;;1999.90;999.90;;;;;;;11.30;95.84;99467.13;8338801;28;20072;-77
2022/12/26 11:53:23;;;;;;;1999.90;999.90;;;;;;;11.33;96.27;99461.94;8345600;28;20385;-79
2022/12/26 11:57:30;;;;;;;1999.90;999.90;;;;;;;11.28;96.04;99455.88;8315412;28;20049;-79
2022/12/26 12:01:32;;;;;;;1999.90;999.90;;;;;;;11.26;95.48;99451.56;8354617;28;20139;-81
2022/12/26 12:05:49;;;;;;;1999.90;999.90;;;;;;;11.26;95.67;99439.44;8341554;28;20059;-77
2022/12/26 12:10:02;;;;;;;1999.90;999.90;;;;;;;11.26;95.16;99446.34;8364983;28;20562;-78
2022/12/26 12:14:21;;;;;;;1999.90;999.90;;;;;;;11.19;94.74;99436.00;8349758;28;20489;-77
2022/12/26 12:18:34;;;;;;;1999.90;999.90;;;;;;;11.15;95.19;99438.66;8338838;28;20056;-78
2022/12/26 12:23:09;;;;;;;1999.90;999.90;;;;;;;11.09;95.82;99444.72;8347364;28;20064;-78
2022/12/26 12:27:27;;;;;;;1999.90;999.90;;;;;;;11.01;96.81;99451.72;8352099;28;20063;-78
2022/12/26 12:31:35;;;;;;;1999.90;999.90;;;;;;;10.93;97.31;99443.06;8343678;28;20048;-78
2022/12/26 12:36:06;;;;;;;1999.90;999.90;;;;;;;10.91;98.83;99434.44;8335917;28;20059;-78
2022/12/26 12:40:35;;;;;;;1999.90;999.90;;;;;;;10.87;99.29;99451.78;8329479;28;20110;-78
2022/12/26 12:45:03;;;;;;;1999.90;999.90;;;;;;;10.92;98.90;99456.94;8359075;28;20073;-81
2022/12/26 12:49:12;;;;;;;1999.90;999.90;;;;;;;10.93;99.16;99452.59;8364270;28;20733;-77
2022/12/26 12:53:29;;;;;;;1999.90;999.90;;;;;;;10.94;99.09;99455.19;8347722;28;20064;-77
2022/12/26 12:57:55;;;;;;;1999.90;999.90;;;;;;;10.94;98.75;99456.94;8325186;28;20064;-78
2022/12/26 13:02:09;;;;;;;1999.90;999.90;;;;;;;10.95;98.96;99451.75;8339461;28;20048;-78
2022/12/26 13:06:48;;;;;;;1999.90;999.90;;;;;;;10.90;98.55;99445.69;8345928;28;20044;-78
2022/12/26 13:11:05;;;;;;;1999.90;999.90;;;;;;;10.85;97.96;99443.13;8331239;28;20094;-78
2022/12/26 13:15:29;;;;;;;1999.90;999.90;;;;;;;10.83;98.35;99439.69;8344028;28;20036;-77
2022/12/26 13:19:39;;;;;;;1999.90;999.90;;;;;;;10.82;98.14;99435.34;8348779;28;20043;-78
2022/12/26 13:28:26;;;;;;;;;;;;;;;10.77;97.07;99424.13;8324308;28;20064;-77
2022/12/26 13:32:30;;;;;;;1999.90;999.90;;;;;;;10.78;96.96;99425.84;8339168;28;19932;-78
2022/12/26 13:36:54;;;;;;;1999.90;999.90;;;;;;;10.82;96.67;99404.19;8377209;28;20036;-78
2022/12/26 13:43:53;;;;;;;1999.90;999.90;;;;;;;10.86;96.55;99400.69;8391565;28;20067;-77
2022/12/26 13:45:36;;;;;;;1999.90;999.90;;;;;;;10.90;96.03;99398.94;8366716;28;20040;-81
2022/12/26 13:49:41;;;;;;;1999.90;999.90;;;;;;;10.91;95.75;99413.66;8371293;28;20056;-78
2022/12/26 13:54:08;;;;;;;1999.90;999.90;;;;;;;10.84;94.82;99417.16;8359149;28;20044;-78
2022/12/26 13:58:42;;;;;;;1999.90;999.90;;;;;;;10.83;93.68;99423.22;8376745;28;20445;-78
2022/12/26 14:03:19;;;;;;;1999.90;999.90;;;;;;;10.81;94.40;99412.84;8386503;28;20071;-78
2022/12/26 14:07:53;;;;;;;1999.90;999.90;;;;;;;10.72;94.75;99401.63;8387428;28;20078;-76
2022/12/26 14:12:24;;;;;;;1999.90;999.90;;;;;;;10.64;95.71;99406.88;8348566;28;20361;-77
2022/12/26 14:21:51;;;;;;;1999.90;999.90;;;;;;;10.39;97.59;99419.06;8380038;28;20040;-77
2022/12/26 14:25:59;;;;;;;1999.90;999.90;;;;;;;10.35;98.97;99399.19;8387752;28;20040;-77
2022/12/26 14:30:19;;;;;;;1999.90;999.90;;;;;;;10.31;99.71;99407.00;8379410;28;20039;-76
2022/12/26 14:34:33;;;;;;;1999.90;999.90;;;;;;;10.26;100.00;99409.63;8373190;28;20049;-76
2022/12/26 14:38:46;;;;;;;1999.90;999.90;;;;;;;10.18;100.00;99429.47;8383973;28;20028;-76
2022/12/26 14:43:16;;;;;;;1999.90;999.90;;;;;;;10.14;100.00;99427.75;8392329;28;20044;-78
2022/12/26 14:47:44;;;;;;;1999.90;999.90;;;;;;;10.10;100.00;99411.34;8366057;28;20056;-75
2022/12/26 14:51:46;;;;;;;1999.90;999.90;;;;;;;10.07;100.00;99419.13;8389801;28;20662;-77
2022/12/26 14:55:49;;;;;;;1999.90;999.90;;;;;;;10.07;100.00;99421.75;8379356;28;20452;-75
2022/12/26 15:00:12;;;;;;;1999.90;999.90;;;;;;;10.04;100.00;99419.13;8390227;28;20150;-75
2022/12/26 15:04:36;;;;;;;1999.90;999.90;;;;;;;9.99;100.00;99429.50;8376584;28;20056;-76
2022/12/26 15:08:52;;;;;;;1999.90;999.90;;;;;;;9.97;100.00;99436.44;8382363;28;20551;-75
2022/12/26 15:13:18;;;;;;;1999.90;999.90;;;;;;;9.96;100.00;99446.81;8388484;28;20070;-76
2022/12/26 15:17:32;;;;;;;1999.90;999.90;;;;;;;9.93;100.00;99475.34;8366946;28;20059;-75
2022/12/26 15:21:36;;;;;;;1999.90;999.90;;;;;;;9.80;100.00;99482.25;8385821;28;20041;-76
2022/12/26 15:25:59;;;;;;;1999.90;999.90;;;;;;;9.51;100.00;99466.69;8379044;28;20044;-76
2022/12/26 15:30:20;;;;;;;;;;;;;;;9.30;100.00;99479.59;8384839;28;20057;-76
2022/12/26 15:34:46;;;;;;;1999.90;999.90;;;;;;;9.19;100.00;99489.97;8390922;28;19935;-75
2022/12/26 15:39:03;;;;;;;1999.90;999.90;;;;;;;9.06;100.00;99485.59;8373040;28;20048;-74
2022/12/26 15:43:29;;;;;;;1999.90;999.90;;;;;;;8.95;99.29;99495.03;8385052;28;20048;-74
2022/12/26 15:47:52;;;;;;;1999.90;999.90;;;;;;;8.87;100.00;99492.44;8361188;28;20072;-74
2022/12/26 15:52:09;;;;;;;1999.90;999.90;;;;;;;8.79;100.00;99507.06;8383156;28;20372;-74
2022/12/26 15:56:25;;;;;;;1999.90;999.90;;;;;;;8.69;98.55;99495.81;8353216;28;20048;-74
2022/12/26 16:00:38;;;;;;;1999.90;999.90;;;;;;;8.63;98.87;99506.16;8365295;28;20040;-76
2022/12/26 16:04:45;;;;;;;1999.90;999.90;;;;;;;8.55;99.56;99492.28;8356992;28;20055;-74
2022/12/26 16:08:58;;;;;;;1999.90;999.90;;;;;;;8.53;99.08;99495.72;8357204;28;20041;-73
2022/12/26 16:13:11;;;;;;;1999.90;999.90;;;;;;;8.45;99.83;99506.03;8376610;28;20044;-75
2022/12/26 16:17:13;;;;;;;1999.90;999.90;;;;;;;8.43;100.00;99513.78;8360919;28;20052;-74
2022/12/26 16:25:37;;;;;;;1999.90;999.90;;;;;;;8.52;100.00;99556.09;8376783;28;20048;-74
2022/12/26 16:29:45;;;;;;;1999.90;999.90;;;;;;;8.59;100.00;99556.13;8378857;28;20444;-73
2022/12/26 16:33:49;;;;;;;1999.90;999.90;;;;;;;8.59;100.00;99575.97;8353441;28;21654;-74
2022/12/26 16:37:53;;;;;;;1999.90;999.90;;;;;;;8.51;100.00;99581.13;8386275;28;20040;-73
2022/12/26 16:42:04;;;;;;;1999.90;999.90;;;;;;;8.33;98.89;99587.00;8373547;28;20492;-74
2022/12/26 16:46:08;;;;;;;1999.90;999.90;;;;;;;8.18;98.05;99600.66;8374250;28;20060;-73
2022/12/26 16:50:19;;;;;;;1999.90;999.90;;;;;;;8.05;98.45;99596.22;8376356;28;20040;-73
2022/12/26 16:54:21;;;;;;;1999.90;999.90;;;;;;;7.96;98.92;99608.22;8377271;28;20051;-73
2022/12/26 16:58:27;;;;;;;1999.90;999.90;;;;;;;7.86;99.32;99613.28;8383680;28;20467;-73
2022/12/26 17:02:33;;;;;;;1999.90;999.90;;;;;;;7.81;99.62;99614.97;8367540;28;20413;-73
2022/12/26 17:06:38;;;;;;;1999.90;999.90;;;;;;;7.79;100.00;99623.56;8372862;28;20460;-73
2022/12/26 17:10:46;;;;;;;1999.90;999.90;;;;;;;7.73;100.00;99628.69;8382766;28;20041;-75
2022/12/26 17:14:49;;;;;;;1999.90;999.90;;;;;;;7.66;100.00;99629.44;8377537;28;20123;-74
2022/12/26 17:18:53;;;;;;;1999.90;999.90;;;;;;;7.62;100.00;99640.59;8362067;28;20044;-73
2022/12/26 17:22:55;;;;;;;1999.90;999.90;;;;;;;7.63;100.00;99638.03;8372609;28;20040;-73
2022/12/26 17:27:07;;;;;;;1999.90;999.90;;;;;;;7.57;100.00;99646.59;8364253;28;20051;-73
2022/12/26 17:31:15;;;;;;;1999.90;999.90;;;;;;;7.56;100.00;99667.25;8350598;28;20056;-73
2022/12/26 17:35:28;;;;;;;1999.90;999.90;;;;;;;7.55;100.00;99673.25;8371380;28;20090;-74
2022/12/26 17:39:41;;;;;;;1999.90;999.90;;;;;;;7.52;100.00;99673.19;8350190;28;20643;-74
2022/12/26 17:43:44;;;;;;;1999.90;999.90;;;;;;;7.54;100.00;99684.41;8390734;28;20460;-73
2022/12/26 17:47:45;;;;;;;;;;;;;;;7.45;100.00;99682.59;8376325;28;20047;-73
2022/12/26 17:51:47;;;;;;;1999.90;999.90;;;;;;;7.47;100.00;99696.41;8357635;28;20034;-73
2022/12/26 17:56:06;;;;;;;1999.90;999.90;;;;;;;7.43;100.00;99704.09;8358751;28;20082;-74
2022/12/26 18:00:16;;;;;;;1999.90;999.90;;;;;;;7.38;100.00;99706.63;8360592;28;20721;-73
2022/12/26 18:04:17;;;;;;;1999.90;999.90;;;;;;;7.38;100.00;99703.19;8390475;28;20048;-73
2022/12/26 18:08:30;;;;;;;1999.90;999.90;;;;;;;7.39;100.00;99708.38;8385849;28;20064;-73
2022/12/26 18:12:32;;;;;;;1999.90;999.90;;;;;;;7.37;100.00;99710.06;8364979;28;20075;-73
2022/12/26 18:16:33;;;;;;;1999.90;999.90;;;;;;;7.40;100.00;99715.28;8380077;28;20132;-73
2022/12/26 18:20:36;;;;;;;1999.90;999.90;;;;;;;7.38;100.00;99723.84;8374749;28;20098;-74
2022/12/26 18:24:38;;;;;;;1999.90;999.90;;;;;;;7.38;100.00;99747.09;8350361;28;20044;-73
2022/12/26 18:28:39;;;;;;;1999.90;999.90;;;;;;;7.35;100.00;99753.06;8388333;28;20111;-74
2022/12/26 18:32:41;;;;;;;1999.90;999.90;;;;;;;7.34;100.00;99759.06;8367204;28;20140;-74
2022/12/26 18:36:42;;;;;;;1999.90;999.90;;;;;;;7.32;100.00;99768.53;8368882;28;20052;-73
2022/12/26 18:40:47;;;;;;;1999.90;999.90;;;;;;;7.36;100.00;99757.41;8370437;28;20155;-73
2022/12/26 18:44:48;;;;;;;1999.90;999.90;;;;;;;7.36;100.00;99766.84;8378919;28;20054;-73
2022/12/26 18:48:52;;;;;;;1999.90;999.90;;;;;;;7.39;100.00;99777.25;8362189;28;20111;-75
2022/12/26 18:52:54;;;;;;;1999.90;999.90;;;;;;;7.39;100.00;99778.13;8362202;28;20370;-73
2022/12/26 18:56:56;;;;;;;1999.90;999.90;;;;;;;7.36;100.00;99785.81;8375920;28;20044;-74
2022/12/26 19:01:00;;;;;;;1999.90;999.90;;;;;;;7.35;100.00;99786.63;8385456;28;20055;-73
2022/12/26 19:05:02;;;;;;;1999.90;999.90;;;;;;;7.34;100.00;99792.66;8378361;28;20052;-73
2022/12/26 19:09:03;;;;;;;1999.90;999.90;;;;;;;7.31;100.00;99800.38;8385589;28;20601;-73
2022/12/26 19:13:05;;;;;;;1999.90;999.90;;;;;;;7.31;100.00;99822.75;8391837;28;21709;-73
2022/12/26 19:17:07;;;;;;;1999.90;999.90;;;;;;;7.28;100.00;99828.72;8371319;28;20084;-74
2022/12/26 19:21:13;;;;;;;1999.90;999.90;;;;;;;7.25;100.00;99844.19;8360475;28;20054;-73
2022/12/26 19:25:15;;;;;;;1999.90;999.90;;;;;;;7.20;100.00;99851.00;8370545;28;20043;-74
2022/12/26 19:29:17;;;;;;;1999.90;999.90;;;;;;;7.13;100.00;99862.06;8369889;28;20036;-74
2022/12/26 19:33:18;;;;;;;1999.90;999.90;;;;;;;7.12;100.00;99870.66;8365827;28;20058;-74
2022/12/26 19:37:20;;;;;;;1999.90;999.90;;;;;;;7.08;100.00;99884.34;8391858;28;20044;-73
2022/12/26 19:41:21;;;;;;;1999.90;999.90;;;;;;;7.04;100.00;99896.34;8386879;28;20048;-74
2022/12/26 19:45:22;;;;;;;1999.90;999.90;;;;;;;7.03;100.00;99902.34;8362016;28;20487;-74
2022/12/26 19:49:24;;;;;;;1999.90;999.90;;;;;;;7.01;100.00;99911.78;8382473;28;20044;-74
2022/12/26 19:53:35;;;;;;;1999.90;999.90;;;;;;;7.00;100.00;99922.06;8377786;28;20098;-74
2022/12/26 19:57:37;;;;;;;1999.90;999.90;;;;;;;6.96;100.00;99928.88;8388577;28;20037;-74
2022/12/26 20:01:39;;;;;;;1999.90;999.90;;;;;;;6.94;100.00;99934.00;8356180;28;20055;-74
2022/12/26 20:05:41;;;;;;;1999.90;999.90;;;;;;;6.89;100.00;99951.13;8380336;28;20049;-74
2022/12/26 20:09:43;;;;;;;1999.90;999.90;;;;;;;6.85;99.68;99948.47;8379928;28;20155;-74
2022/12/26 20:13:44;;;;;;;1999.90;999.90;;;;;;;6.79;99.87;99956.06;8375419;28;20130;-75
2022/12/26 20:17:47;;;;;;;1999.90;999.90;;;;;;;6.74;99.61;99960.28;8379340;28;20383;-75
2022/12/26 20:21:49;;;;;;;1999.90;999.90;;;;;;;6.68;99.15;99965.34;8362206;28;20308;-75
2022/12/26 20:25:51;;;;;;;1999.90;999.90;;;;;;;6.57;98.54;99973.72;8377680;28;20041;-75
2022/12/26 20:29:52;;;;;;;1999.90;999.90;;;;;;;6.46;98.25;99976.88;8377431;28;20047;-74
2022/12/26 20:33:53;;;;;;;1999.90;999.90;;;;;;;6.36;98.10;99994.75;8364114;28;20068;-75
2022/12/26 20:37:55;;;;;;;1999.90;999.90;;;;;;;6.24;97.61;100009.06;8339723;28;20056;-74
2022/12/26 20:41:56;;;;;;;1999.90;999.90;;;;;;;6.10;97.82;100002.72;8322965;28;20082;-74